createdAt,value
2018-05-27T00:01:09.105Z,21.30
2018-05-27T00:03:37.372Z,21.30
2018-05-27T00:06:06.398Z,21.20
2018-05-27T00:08:34.668Z,21.20
2018-05-27T00:11:02.979Z,21.20
2018-05-27T00:13:31.247Z,21.10
2018-05-27T00:15:59.513Z,21.10
2018-05-27T00:18:27.776Z,21.10
2018-05-27T00:20:56.822Z,21.20
2018-05-27T00:23:25.089Z,21.10
2018-05-27T00:25:53.347Z,21.10
2018-05-27T00:28:21.630Z,21.00
2018-05-27T00:30:50.799Z,20.90
2018-05-27T00:33:19.179Z,20.90
2018-05-27T00:35:48.960Z,20.80
2018-05-27T00:38:17.593Z,20.80
2018-05-27T00:40:45.865Z,20.70
2018-05-27T00:43:14.215Z,20.70
2018-05-27T00:45:42.491Z,20.70
2018-05-27T00:48:10.755Z,20.70
2018-05-27T00:50:39.060Z,20.70
2018-05-27T00:53:07.309Z,20.70
2018-05-27T00:55:35.631Z,20.70
2018-05-27T00:58:03.907Z,20.70
2018-05-27T01:00:32.282Z,20.70
2018-05-27T01:03:01.185Z,20.70
2018-05-27T01:05:29.572Z,20.70
2018-05-27T01:07:57.845Z,20.70
2018-05-27T01:10:26.132Z,20.70
2018-05-27T01:12:54.428Z,20.60
2018-05-27T01:15:22.707Z,20.50
2018-05-27T01:17:50.971Z,20.60
2018-05-27T01:20:19.350Z,20.50
2018-05-27T01:22:47.733Z,20.50
2018-05-27T01:25:16.453Z,20.50
2018-05-27T01:27:46.232Z,20.40
2018-05-27T01:30:14.512Z,20.40
2018-05-27T01:32:42.765Z,20.40
2018-05-27T01:35:11.035Z,20.40
2018-05-27T01:37:40.057Z,20.40
2018-05-27T01:40:08.364Z,20.40
2018-05-27T01:42:36.612Z,20.40
2018-05-27T01:45:04.924Z,20.40
2018-05-27T01:47:33.236Z,20.30
2018-05-27T01:50:01.489Z,20.30
2018-05-27T01:52:29.733Z,20.30
2018-05-27T01:54:58.048Z,20.30
2018-05-27T01:57:26.336Z,20.20
2018-05-27T01:59:54.714Z,20.20
2018-05-27T02:02:22.970Z,20.30
2018-05-27T02:04:51.253Z,20.20
2018-05-27T02:07:19.510Z,20.20
2018-05-27T02:09:48.655Z,20.20
2018-05-27T02:12:16.967Z,20.20
2018-05-27T02:14:45.214Z,20.20
2018-05-27T02:17:13.499Z,20.10
2018-05-27T02:19:41.775Z,20.10
2018-05-27T02:22:10.056Z,20.10
2018-05-27T02:24:38.338Z,20.00
2018-05-27T02:27:06.626Z,19.90
2018-05-27T02:29:34.919Z,19.80
2018-05-27T02:32:03.198Z,19.90
2018-05-27T02:34:31.465Z,19.80
2018-05-27T02:37:00.568Z,19.70
2018-05-27T02:39:28.854Z,19.60
2018-05-27T02:41:57.109Z,19.70
2018-05-27T02:44:25.399Z,19.70
2018-05-27T02:46:53.644Z,19.60
2018-05-27T02:49:22.698Z,19.50
2018-05-27T02:51:50.953Z,19.50
2018-05-27T02:54:19.220Z,19.50
2018-05-27T02:56:47.524Z,19.50
2018-05-27T02:59:15.793Z,19.50
2018-05-27T03:01:44.838Z,19.60
2018-05-27T03:04:13.203Z,19.60
2018-05-27T03:06:41.471Z,19.60
2018-05-27T03:09:09.742Z,19.50
2018-05-27T03:11:38.041Z,19.50
2018-05-27T03:14:06.305Z,19.50
2018-05-27T03:16:34.562Z,19.40
2018-05-27T03:19:02.812Z,19.40
2018-05-27T03:21:31.156Z,19.40
2018-05-27T03:23:59.433Z,19.40
2018-05-27T03:26:27.709Z,19.40
2018-05-27T03:28:55.977Z,19.40
2018-05-27T03:31:24.279Z,19.30
2018-05-27T03:33:52.534Z,19.30
2018-05-27T03:36:20.827Z,19.30
2018-05-27T03:38:49.085Z,19.30
2018-05-27T03:41:17.352Z,19.30
2018-05-27T03:43:46.557Z,19.30
2018-05-27T03:46:15.604Z,19.30
2018-05-27T03:48:43.875Z,19.30
2018-05-27T03:51:12.136Z,19.30
2018-05-27T03:53:40.392Z,19.40
2018-05-27T03:56:09.428Z,19.50
2018-05-27T03:58:37.685Z,19.50
2018-05-27T04:01:05.984Z,19.40
2018-05-27T04:03:34.236Z,19.50
2018-05-27T04:06:14.609Z,19.40
2018-05-27T04:08:42.859Z,19.40
2018-05-27T04:11:11.233Z,19.50
2018-05-27T04:13:39.460Z,19.50
2018-05-27T04:16:08.791Z,19.60
2018-05-27T04:18:37.069Z,19.60
2018-05-27T04:21:05.336Z,19.70
2018-05-27T04:23:33.586Z,19.70
2018-05-27T04:26:02.734Z,19.80
2018-05-27T04:28:31.071Z,19.80
2018-05-27T04:30:59.319Z,19.90
2018-05-27T04:33:27.672Z,19.80
2018-05-27T04:35:55.952Z,19.80
2018-05-27T04:38:24.211Z,19.70
2018-05-27T04:40:52.513Z,19.80
2018-05-27T04:43:20.764Z,19.70
2018-05-27T04:45:49.048Z,19.70
2018-05-27T04:48:17.366Z,19.70
2018-05-27T04:50:45.638Z,19.70
2018-05-27T04:53:13.893Z,19.80
2018-05-27T04:55:42.169Z,19.90
2018-05-27T04:58:10.424Z,20.00
2018-05-27T05:00:39.478Z,20.30
2018-05-27T05:03:07.771Z,20.30
2018-05-27T05:05:36.043Z,20.50
2018-05-27T05:08:04.305Z,20.70
2018-05-27T05:10:32.596Z,20.80
2018-05-27T05:13:00.886Z,20.80
2018-05-27T05:15:29.158Z,20.80
2018-05-27T05:17:57.413Z,20.80
2018-05-27T05:20:25.688Z,20.90
2018-05-27T05:22:53.974Z,20.90
2018-05-27T05:25:23.136Z,20.90
2018-05-27T05:27:52.905Z,21.00
2018-05-27T05:30:21.183Z,21.00
2018-05-27T05:32:49.457Z,21.10
2018-05-27T05:35:18.001Z,21.30
2018-05-27T05:37:46.336Z,21.60
2018-05-27T05:40:14.661Z,21.80
2018-05-27T05:42:43.728Z,22.40
2018-05-27T05:45:12.090Z,22.40
2018-05-27T05:47:40.354Z,22.70
2018-05-27T05:50:09.365Z,23.10
2018-05-27T05:52:37.665Z,23.00
2018-05-27T05:55:05.920Z,23.20
2018-05-27T05:57:34.226Z,23.30
2018-05-27T06:00:02.516Z,23.30
2018-05-27T06:02:31.553Z,23.30
2018-05-27T06:04:59.813Z,23.30
2018-05-27T06:07:28.127Z,23.30
2018-05-27T06:09:57.139Z,23.50
2018-05-27T06:12:26.081Z,23.50
2018-05-27T06:14:54.475Z,23.50
2018-05-27T06:17:22.751Z,23.50
2018-05-27T06:19:51.002Z,23.50
2018-05-27T06:22:19.315Z,23.60
2018-05-27T06:24:48.518Z,23.50
2018-05-27T06:27:16.789Z,23.40
2018-05-27T06:29:45.061Z,23.50
2018-05-27T06:32:13.352Z,23.60
2018-05-27T06:34:41.623Z,23.90
2018-05-27T06:37:09.949Z,24.10
2018-05-27T06:39:38.199Z,24.40
2018-05-27T06:42:06.489Z,24.50
2018-05-27T06:44:34.757Z,24.50
2018-05-27T06:47:03.144Z,24.70
2018-05-27T06:49:31.405Z,24.70
2018-05-27T06:51:59.668Z,24.80
2018-05-27T06:54:27.915Z,24.80
2018-05-27T06:56:56.973Z,25.10
2018-05-27T06:59:25.228Z,25.10
2018-05-27T07:01:53.536Z,25.30
2018-05-27T07:04:21.912Z,25.50
2018-05-27T07:06:50.161Z,25.60
2018-05-27T07:09:18.510Z,25.70
2018-05-27T07:11:46.737Z,25.90
2018-05-27T07:14:15.042Z,26.10
2018-05-27T07:16:43.297Z,26.20
2018-05-27T07:19:11.561Z,26.40
2018-05-27T07:21:40.581Z,26.60
2018-05-27T07:24:08.837Z,26.50
2018-05-27T07:26:37.881Z,26.90
2018-05-27T07:29:06.391Z,26.80
2018-05-27T07:31:35.090Z,27.00
2018-05-27T07:34:03.560Z,27.20
2018-05-27T07:36:32.679Z,27.90
2018-05-27T07:39:01.033Z,27.90
2018-05-27T07:41:29.340Z,28.50
2018-05-27T07:43:57.714Z,29.10
2018-05-27T07:46:26.013Z,29.70
2018-05-27T07:48:54.362Z,30.20
2018-05-27T07:51:22.620Z,30.50
2018-05-27T07:53:50.889Z,30.80
2018-05-27T07:56:19.203Z,31.30
2018-05-27T07:58:47.480Z,31.70
2018-05-27T08:01:15.728Z,31.90
2018-05-27T08:03:44.042Z,32.20
2018-05-27T08:06:12.284Z,32.10
2018-05-27T08:08:41.324Z,32.20
2018-05-27T08:11:09.609Z,32.10
2018-05-27T08:13:37.889Z,32.40
2018-05-27T08:16:06.153Z,32.70
2018-05-27T08:18:34.405Z,33.30
2018-05-27T08:21:03.544Z,33.70
2018-05-27T08:23:31.832Z,33.70
2018-05-27T08:26:00.105Z,33.80
2018-05-27T08:28:28.354Z,34.10
2018-05-27T08:30:57.528Z,34.40
2018-05-27T08:33:26.663Z,34.30
2018-05-27T08:35:55.141Z,34.30
2018-05-27T08:38:23.466Z,34.40
2018-05-27T08:40:51.775Z,34.30
2018-05-27T08:43:20.031Z,34.30
2018-05-27T08:45:48.341Z,34.40
2018-05-27T08:48:16.615Z,34.40
2018-05-27T08:50:44.881Z,34.70
2018-05-27T08:53:13.143Z,34.70
2018-05-27T08:55:41.412Z,34.50
2018-05-27T08:58:09.704Z,34.40
2018-05-27T09:00:37.987Z,34.20
2018-05-27T09:03:06.259Z,33.90
2018-05-27T09:05:34.729Z,34.00
2018-05-27T09:08:03.174Z,34.10
2018-05-27T09:10:31.654Z,33.90
2018-05-27T09:13:00.141Z,33.80
2018-05-27T09:15:28.464Z,33.70
2018-05-27T09:17:56.713Z,33.60
2018-05-27T09:20:24.976Z,33.50
2018-05-27T09:22:53.337Z,33.50
2018-05-27T09:25:21.622Z,33.40
2018-05-27T09:27:49.873Z,33.30
2018-05-27T09:30:18.149Z,33.30
2018-05-27T09:32:46.426Z,33.30
2018-05-27T09:35:15.464Z,33.30
2018-05-27T09:37:43.739Z,33.30
2018-05-27T09:40:12.016Z,33.30
2018-05-27T09:42:40.263Z,33.50
2018-05-27T09:45:09.343Z,33.60
2018-05-27T09:47:37.586Z,33.70
2018-05-27T09:50:05.840Z,33.80
2018-05-27T09:52:34.097Z,33.90
2018-05-27T09:55:03.105Z,34.10
2018-05-27T09:57:31.411Z,34.10
2018-05-27T09:59:59.724Z,34.10
2018-05-27T10:02:27.924Z,34.10
2018-05-27T10:04:56.938Z,34.10
2018-05-27T10:07:25.959Z,34.10
2018-05-27T10:09:54.199Z,34.10
2018-05-27T10:12:22.547Z,34.20
2018-05-27T10:14:50.809Z,34.50
2018-05-27T10:17:19.080Z,34.80
2018-05-27T10:19:47.407Z,35.20
2018-05-27T10:22:15.641Z,35.50
2018-05-27T10:24:43.888Z,35.80
2018-05-27T10:27:12.473Z,36.00
2018-05-27T10:29:40.208Z,36.00
2018-05-27T10:32:08.294Z,36.20
2018-05-27T10:34:36.036Z,36.30
2018-05-27T10:37:03.871Z,36.50
2018-05-27T10:39:31.594Z,36.40
2018-05-27T10:41:59.309Z,36.50
2018-05-27T10:44:27.113Z,36.50
2018-05-27T10:46:54.885Z,36.50
2018-05-27T10:49:22.601Z,36.50
2018-05-27T10:51:51.068Z,36.60
2018-05-27T10:54:19.537Z,35.90
2018-05-27T10:56:47.291Z,35.80
2018-05-27T10:59:15.089Z,35.40
2018-05-27T11:01:43.564Z,35.20
2018-05-27T11:04:11.261Z,35.20
2018-05-27T11:06:39.792Z,35.20
2018-05-27T11:09:07.480Z,35.10
2018-05-27T11:11:35.229Z,35.40
2018-05-27T11:14:02.916Z,35.80
2018-05-27T11:16:30.671Z,36.40
2018-05-27T11:18:58.360Z,36.80
2018-05-27T11:21:26.123Z,37.00
2018-05-27T11:23:53.814Z,37.00
2018-05-27T11:26:22.325Z,36.40
2018-05-27T11:28:50.169Z,36.40
2018-05-27T11:31:18.214Z,36.30
2018-05-27T11:33:45.939Z,36.10
2018-05-27T11:36:13.841Z,35.70
2018-05-27T11:38:41.733Z,35.50
2018-05-27T11:41:09.850Z,35.10
2018-05-27T11:43:37.668Z,35.10
2018-05-27T11:46:05.338Z,35.10
2018-05-27T11:48:33.131Z,35.10
2018-05-27T11:51:00.850Z,35.00
2018-05-27T11:53:28.581Z,35.00
2018-05-27T11:55:57.029Z,34.80
2018-05-27T11:58:24.739Z,34.80
2018-05-27T12:00:52.447Z,34.60
2018-05-27T12:03:20.149Z,34.40
2018-05-27T12:05:47.884Z,34.30
2018-05-27T12:08:15.655Z,34.00
2018-05-27T12:10:43.439Z,33.90
2018-05-27T12:13:11.145Z,33.70
2018-05-27T12:15:38.830Z,33.60
2018-05-27T12:18:06.535Z,33.40
2018-05-27T12:20:34.296Z,33.30
2018-05-27T12:23:02.010Z,33.30
2018-05-27T12:25:30.548Z,33.10
2018-05-27T12:27:58.252Z,33.00
2018-05-27T12:30:26.947Z,32.80
2018-05-27T12:32:55.732Z,32.60
2018-05-27T12:35:23.991Z,32.60
2018-05-27T12:37:51.778Z,32.60
2018-05-27T12:40:19.481Z,32.60
2018-05-27T12:42:47.210Z,32.70
2018-05-27T12:45:14.882Z,32.80
2018-05-27T12:47:43.435Z,32.60
2018-05-27T12:50:11.198Z,32.60
2018-05-27T12:52:38.998Z,32.60
2018-05-27T12:55:07.434Z,32.70
2018-05-27T12:57:35.139Z,32.70
2018-05-27T13:00:02.839Z,32.80
2018-05-27T13:02:31.309Z,33.00
2018-05-27T13:04:59.770Z,33.00
2018-05-27T13:07:27.624Z,33.00
2018-05-27T13:09:55.322Z,32.90
2018-05-27T13:12:23.057Z,32.80
2018-05-27T13:14:50.831Z,32.70
2018-05-27T13:17:18.597Z,32.60
2018-05-27T13:19:46.368Z,32.30
2018-05-27T13:22:14.139Z,32.20
2018-05-27T13:24:41.828Z,32.10
2018-05-27T13:27:10.388Z,31.80
2018-05-27T13:29:38.124Z,31.80
2018-05-27T13:32:05.924Z,31.80
2018-05-27T13:34:33.696Z,31.70
2018-05-27T13:37:01.461Z,31.70
2018-05-27T13:39:29.228Z,31.60
2018-05-27T13:41:56.950Z,31.50
2018-05-27T13:44:25.437Z,31.40
2018-05-27T13:46:53.112Z,31.40
2018-05-27T13:49:20.810Z,31.40
2018-05-27T13:51:48.587Z,31.40
2018-05-27T13:54:16.357Z,31.40
2018-05-27T13:56:44.052Z,31.40
2018-05-27T13:59:11.791Z,31.20
2018-05-27T14:01:39.486Z,31.10
2018-05-27T14:04:07.220Z,31.00
2018-05-27T14:06:34.987Z,30.80
2018-05-27T14:09:02.701Z,30.70
2018-05-27T14:11:31.173Z,30.50
2018-05-27T14:13:58.920Z,30.50
2018-05-27T14:16:26.672Z,30.50
2018-05-27T14:18:54.383Z,30.50
2018-05-27T14:21:22.836Z,30.60
2018-05-27T14:23:50.552Z,30.60
2018-05-27T14:26:18.248Z,30.60
2018-05-27T14:28:46.207Z,30.70
2018-05-27T14:31:13.961Z,30.60
2018-05-27T14:33:42.534Z,30.70
2018-05-27T14:36:10.817Z,30.60
2018-05-27T14:38:38.761Z,30.70
2018-05-27T14:41:06.548Z,30.70
2018-05-27T14:43:35.218Z,30.70
2018-05-27T14:46:03.776Z,30.70
2018-05-27T14:48:31.595Z,30.60
2018-05-27T14:50:59.337Z,30.60
2018-05-27T14:53:27.046Z,30.60
2018-05-27T14:58:35.388Z,30.50
2018-05-27T15:01:03.924Z,30.50
2018-05-27T15:03:31.639Z,30.50
2018-05-27T15:06:00.095Z,30.50
2018-05-27T15:08:27.857Z,30.50
2018-05-27T15:10:55.591Z,30.50
2018-05-27T15:13:23.375Z,30.40
2018-05-27T15:15:51.146Z,30.30
2018-05-27T15:18:19.299Z,30.30
2018-05-27T15:20:47.544Z,30.30
2018-05-27T15:23:16.565Z,29.90
2018-05-27T15:25:44.861Z,29.90
2018-05-27T15:28:13.648Z,29.80
2018-05-27T15:30:42.089Z,29.60
2018-05-27T15:33:10.419Z,29.50
2018-05-27T15:35:38.661Z,29.40
2018-05-27T15:38:07.702Z,29.20
2018-05-27T15:40:35.994Z,29.20
2018-05-27T15:43:04.266Z,29.00
2018-05-27T15:45:32.540Z,29.00
2018-05-27T15:48:00.855Z,28.80
2018-05-27T15:50:29.098Z,28.80
2018-05-27T15:52:57.365Z,28.70
2018-05-27T15:55:25.672Z,28.70
2018-05-27T15:57:53.915Z,28.60
2018-05-27T16:00:22.223Z,28.50
2018-05-27T16:02:50.485Z,28.40
2018-05-27T16:05:18.726Z,28.40
2018-05-27T16:07:46.997Z,28.40
2018-05-27T16:10:15.240Z,28.30
2018-05-27T16:12:43.531Z,28.30
2018-05-27T16:15:11.769Z,28.30
2018-05-27T16:17:40.823Z,28.30
2018-05-27T16:20:09.089Z,28.20
2018-05-27T16:22:37.352Z,28.20
2018-05-27T16:25:05.649Z,28.20
2018-05-27T16:27:33.937Z,28.20
2018-05-27T16:30:03.270Z,28.20
2018-05-27T16:32:31.962Z,28.20
2018-05-27T16:35:01.363Z,28.30
2018-05-27T16:37:29.660Z,28.20
2018-05-27T16:39:57.907Z,28.20
2018-05-27T16:42:26.158Z,28.10
2018-05-27T16:44:54.425Z,28.10
2018-05-27T16:47:22.736Z,28.00
2018-05-27T16:49:51.079Z,27.90
2018-05-27T16:52:20.149Z,27.80
2018-05-27T16:54:48.378Z,27.80
2018-05-27T16:57:16.665Z,27.80
2018-05-27T16:59:44.920Z,27.80
2018-05-27T17:02:13.226Z,27.80
2018-05-27T17:04:41.481Z,27.70
2018-05-27T17:07:09.729Z,27.70
2018-05-27T17:09:38.077Z,27.70
2018-05-27T17:12:06.339Z,27.70
2018-05-27T17:14:34.636Z,27.70
2018-05-27T17:17:02.916Z,27.80
2018-05-27T17:19:31.179Z,27.70
2018-05-27T17:21:59.478Z,27.70
2018-05-27T17:24:27.762Z,27.60
2018-05-27T17:26:56.778Z,27.60
2018-05-27T17:29:25.163Z,27.60
2018-05-27T17:31:53.539Z,27.60
2018-05-27T17:34:21.811Z,27.50
2018-05-27T17:36:50.080Z,27.50
2018-05-27T17:39:18.346Z,27.50
2018-05-27T17:41:46.595Z,27.40
2018-05-27T17:44:14.922Z,27.40
2018-05-27T17:46:42.808Z,27.40
2018-05-27T17:49:10.532Z,27.30
2018-05-27T17:51:38.996Z,27.30
2018-05-27T17:54:06.874Z,27.30
2018-05-27T17:56:35.475Z,27.30
2018-05-27T17:59:03.972Z,27.30
2018-05-27T18:01:32.507Z,27.30
2018-05-27T18:04:00.244Z,27.30
2018-05-27T18:06:27.955Z,27.30
2018-05-27T18:08:55.701Z,27.30
2018-05-27T18:11:23.476Z,27.40
2018-05-27T18:13:51.223Z,27.40
2018-05-27T18:16:18.921Z,27.40
2018-05-27T18:18:46.638Z,27.40
2018-05-27T18:21:14.344Z,27.40
2018-05-27T18:23:42.125Z,27.50
2018-05-27T18:26:09.880Z,27.50
2018-05-27T18:28:37.645Z,27.50
2018-05-27T18:31:05.347Z,27.50
2018-05-27T18:33:33.901Z,27.60
2018-05-27T18:36:01.608Z,27.50
2018-05-27T18:38:29.315Z,27.60
2018-05-27T18:40:57.014Z,27.60
2018-05-27T18:43:24.728Z,27.60
2018-05-27T18:45:52.416Z,27.60
2018-05-27T18:48:20.208Z,27.60
2018-05-27T18:50:47.992Z,27.60
2018-05-27T18:53:15.733Z,27.60
2018-05-27T18:55:43.425Z,27.50
2018-05-27T18:58:11.149Z,27.50
2018-05-27T19:00:38.828Z,27.50
2018-05-27T19:03:06.530Z,27.50
2018-05-27T19:05:34.238Z,27.50
2018-05-27T19:08:01.949Z,27.50
2018-05-27T19:10:29.715Z,27.40
2018-05-27T19:12:57.478Z,27.30
2018-05-27T19:15:25.276Z,27.30
2018-05-27T19:17:52.955Z,27.30
2018-05-27T19:20:21.525Z,27.20
2018-05-27T19:22:49.218Z,27.20
2018-05-27T19:25:17.861Z,27.10
2018-05-27T19:27:45.575Z,27.10
2018-05-27T19:30:14.050Z,27.10
2018-05-27T19:32:42.530Z,27.00
2018-05-27T19:35:10.238Z,27.00
2018-05-27T19:37:38.034Z,27.00
2018-05-27T19:40:05.800Z,26.90
2018-05-27T19:42:33.586Z,26.90
2018-05-27T19:45:01.293Z,26.80
2018-05-27T19:47:29.881Z,26.70
2018-05-27T19:49:57.582Z,26.70
2018-05-27T19:52:25.307Z,26.70
2018-05-27T19:54:54.081Z,26.60
2018-05-27T19:57:21.827Z,26.60
2018-05-27T19:59:49.566Z,26.60
2018-05-27T20:02:17.260Z,26.50
2018-05-27T20:04:44.975Z,26.60
2018-05-27T20:07:13.499Z,26.50
2018-05-27T20:09:41.205Z,26.50
2018-05-27T20:12:08.916Z,26.40
2018-05-27T20:14:37.387Z,26.30
2018-05-27T20:17:05.926Z,26.30
2018-05-27T20:19:33.632Z,26.20
2018-05-27T20:22:02.171Z,26.20
2018-05-27T20:24:29.936Z,26.20
2018-05-27T20:26:57.668Z,26.20
2018-05-27T20:29:26.147Z,26.10
2018-05-27T20:31:54.613Z,26.00
2018-05-27T20:34:22.320Z,26.00
2018-05-27T20:36:50.015Z,26.00
2018-05-27T20:39:17.824Z,26.10
2018-05-27T20:41:45.561Z,26.10
2018-05-27T20:44:13.267Z,26.00
2018-05-27T20:46:41.809Z,26.00
2018-05-27T20:49:09.528Z,26.00
2018-05-27T20:51:38.064Z,26.00
2018-05-27T20:54:05.778Z,26.00
2018-05-27T20:56:34.362Z,25.90
2018-05-27T20:59:02.089Z,25.90
2018-05-27T21:01:29.796Z,25.90
2018-05-27T21:03:58.287Z,25.60
2018-05-27T21:06:26.013Z,25.60
2018-05-27T21:08:53.738Z,25.50
2018-05-27T21:11:21.427Z,25.40
2018-05-27T21:13:49.218Z,25.30
2018-05-27T21:16:16.976Z,25.20
2018-05-27T21:18:44.779Z,25.10
2018-05-27T21:21:12.519Z,25.00
2018-05-27T21:23:40.310Z,24.90
2018-05-27T21:26:08.918Z,24.80
2018-05-27T21:28:37.391Z,24.60
2018-05-27T21:31:05.144Z,24.60
2018-05-27T21:33:32.920Z,24.50
2018-05-27T21:36:00.614Z,24.50
2018-05-27T21:38:29.084Z,24.20
2018-05-27T21:40:56.828Z,24.20
2018-05-27T21:43:24.562Z,24.20
2018-05-27T21:45:52.279Z,24.10
2018-05-27T21:48:20.024Z,24.00
2018-05-27T21:50:47.802Z,23.90
2018-05-27T21:53:15.681Z,23.90
2018-05-27T21:55:43.367Z,23.90
2018-05-27T21:58:11.333Z,23.80
2018-05-27T22:00:39.076Z,23.70
2018-05-27T22:03:06.840Z,23.70
2018-05-27T22:05:34.618Z,23.60
2018-05-27T22:08:02.320Z,23.50
2018-05-27T22:10:30.885Z,23.30
2018-05-27T22:12:58.558Z,23.30
2018-05-27T22:15:26.314Z,23.30
2018-05-27T22:17:54.071Z,23.20
2018-05-27T22:20:21.789Z,23.20
2018-05-27T22:22:50.253Z,23.10
2018-05-27T22:28:03.486Z,23.10
2018-05-27T22:30:31.256Z,23.10
2018-05-27T22:32:58.939Z,23.00
2018-05-27T22:35:26.676Z,23.00
2018-05-27T22:37:54.453Z,22.90
2018-05-27T22:40:22.170Z,22.90
2018-05-27T22:42:50.708Z,22.90
2018-05-27T22:45:18.414Z,22.80
2018-05-27T22:47:46.872Z,22.80
2018-05-27T22:50:14.591Z,22.80
2018-05-27T22:52:42.292Z,22.80
2018-05-27T22:55:09.993Z,22.70
2018-05-27T22:57:37.691Z,22.70
2018-05-27T23:00:05.399Z,22.70
2018-05-27T23:02:32.895Z,22.70
2018-05-27T23:05:00.628Z,22.70
2018-05-27T23:07:28.432Z,22.60
2018-05-27T23:09:56.104Z,22.70
2018-05-27T23:12:25.332Z,22.60
2018-05-27T23:14:53.858Z,22.60
2018-05-27T23:17:21.643Z,22.60
2018-05-27T23:19:49.500Z,22.60
2018-05-27T23:22:17.168Z,22.50
2018-05-27T23:24:44.874Z,22.50
2018-05-27T23:27:13.416Z,22.50
2018-05-27T23:29:41.129Z,22.50
2018-05-27T23:32:09.681Z,22.50
2018-05-27T23:34:37.442Z,22.50
2018-05-27T23:37:05.240Z,22.50
2018-05-27T23:39:32.912Z,22.40
2018-05-27T23:42:01.462Z,22.40
2018-05-27T23:44:29.228Z,22.30
2018-05-27T23:46:56.927Z,22.40
2018-05-27T23:49:25.438Z,22.30
2018-05-27T23:51:53.115Z,22.30
2018-05-27T23:54:20.851Z,22.30
2018-05-27T23:56:49.318Z,22.30
2018-05-27T23:59:17.030Z,22.30
